Time;durP1;ratioP1;P1;durP2;ratioP2;P2;SDS_P1;SDS_P2;PMS_P1;PMS_P2;Temp;Humidity;BMP_temperature;BMP_pressure;BME280_temperature;BME280_humidity;BME280_pressure;Samples;Min_cycle;Max_cycle;Signal;HPM_P1;HPM_P2
2023/01/22 00:01:26;;;;;;;6.00;3.95;;;;;;;6.74;74.57;94609.22;5032426;28;20017;-81
2023/01/22 00:03:53;;;;;;;5.32;3.45;;;;;;;6.74;74.34;94614.41;4998129;28;20403;-81
2023/01/22 00:06:19;;;;;;;8.77;3.72;;;;;;;6.79;74.27;94620.06;5017386;28;20017;-81
2023/01/22 00:08:46;;;;;;;5.70;3.78;;;;;;;6.72;74.73;94618.88;4999726;28;20040;-80
2023/01/22 00:11:12;;;;;;;5.38;3.70;;;;;;;6.81;74.91;94630.31;5032056;28;20063;-81
2023/01/22 00:13:38;;;;;;;5.45;3.70;;;;;;;6.86;75.29;94625.63;5014027;28;20060;-81
2023/01/22 00:16:04;;;;;;;5.13;3.70;;;;;;;6.85;74.71;94623.97;5032197;28;20083;-79
2023/01/22 00:18:30;;;;;;;6.88;4.85;;;;;;;6.88;74.91;94613.41;5049752;28;20033;-81
2023/01/22 00:20:55;;;;;;;7.50;5.10;;;;;;;6.79;75.91;94606.34;5012264;28;20072;-82
2023/01/22 00:23:21;;;;;;;7.85;5.60;;;;;;;6.69;75.95;94601.84;5014247;28;20095;-81
2023/01/22 00:25:46;;;;;;;11.25;5.28;;;;;;;6.70;76.19;94621.53;5018985;28;20060;-82
2023/01/22 00:28:12;;;;;;;7.55;4.00;;;;;;;6.71;75.76;94617.19;5035583;28;20500;-81
2023/01/22 00:30:37;;;;;;;6.93;4.03;;;;;;;6.94;75.48;94625.91;5002735;28;20028;-80
2023/01/22 00:33:03;;;;;;;7.97;4.78;;;;;;;6.89;76.27;94623.66;5035166;28;20445;-80
2023/01/22 00:35:29;;;;;;;19.52;8.60;;;;;;;6.77;76.38;94624.53;5002553;28;20410;-79
2023/01/22 00:37:54;;;;;;;10.50;5.05;;;;;;;6.68;76.46;94618.25;5034823;28;20072;-81
2023/01/22 00:40:19;;;;;;;9.38;4.85;;;;;;;6.54;76.85;94618.38;5001679;28;20033;-81
2023/01/22 00:42:45;;;;;;;6.22;3.63;;;;;;;6.58;76.78;94645.66;5017783;28;20044;-80
2023/01/22 00:45:12;;;;;;;5.78;3.42;;;;;;;6.54;76.81;94633.88;5017838;28;20575;-80
2023/01/22 00:47:37;;;;;;;6.28;3.35;;;;;;;6.49;76.74;94625.63;5003457;28;20040;-80
2023/01/22 00:50:03;;;;;;;4.90;3.40;;;;;;;6.55;76.69;94642.47;5037698;28;20028;-81
2023/01/22 00:52:28;;;;;;;8.50;3.67;;;;;;;6.50;76.79;94642.78;5021962;28;20470;-81
2023/01/22 00:54:54;;;;;;;7.43;3.38;;;;;;;6.56;76.10;94637.19;5038456;28;20028;-81
2023/01/22 00:57:20;;;;;;;7.28;3.63;;;;;;;6.57;76.55;94648.31;5038332;28;20036;-81
2023/01/22 00:59:49;;;;;;;7.05;3.25;;;;;;;6.39;76.46;94661.56;5055101;28;20028;-80
2023/01/22 01:02:15;;;;;;;6.93;3.53;;;;;;;6.33;76.97;94666.34;5054809;28;20029;-81
2023/01/22 01:04:40;;;;;;;7.45;4.03;;;;;;;6.18;77.34;94663.84;5021820;28;20039;-81
2023/01/22 01:07:06;;;;;;;5.50;3.65;;;;;;;6.29;77.21;94670.03;5038255;28;20029;-80
2023/01/22 01:09:31;;;;;;;5.88;3.65;;;;;;;6.13;77.51;94665.94;5019158;28;20060;-81
2023/01/22 01:11:57;;;;;;;5.97;3.80;;;;;;;6.30;77.23;94682.03;4998842;28;20025;-81
2023/01/22 01:14:23;;;;;;;6.05;3.40;;;;;;;6.17;77.13;94671.72;5014803;28;20033;-80
2023/01/22 01:16:49;;;;;;;7.70;5.00;;;;;;;6.13;77.43;94665.09;5015079;28;20036;-83
2023/01/22 01:19:16;;;;;;;8.25;4.25;;;;;;;6.28;76.83;94658.09;5015094;28;20038;-79
2023/01/22 01:21:41;;;;;;;6.85;4.20;;;;;;;6.31;76.45;94678.50;4982894;28;20056;-79
2023/01/22 01:24:08;;;;;;;6.78;4.30;;;;;;;6.28;76.74;94673.56;5021966;28;20092;-79
2023/01/22 01:26:34;;;;;;;8.85;4.82;;;;;;;6.31;76.21;94678.50;5001838;28;20029;-78
2023/01/22 01:29:00;;;;;;;11.38;5.95;;;;;;;6.42;75.84;94692.31;5034487;28;20159;-81
2023/01/22 01:31:26;;;;;;;9.80;5.50;;;;;;;6.42;75.63;94687.16;5033772;28;20453;-80
2023/01/22 01:33:51;;;;;;;8.18;4.82;;;;;;;6.39;76.12;94694.31;5018034;28;20037;-80
2023/01/22 01:36:19;;;;;;;7.00;4.03;;;;;;;6.21;76.25;94679.16;5034451;28;20112;-79
2023/01/22 01:38:44;;;;;;;6.03;3.58;;;;;;;6.29;76.00;94675.22;5001458;28;20074;-80
2023/01/22 01:41:15;;;;;;;5.38;3.83;;;;;;;6.28;76.15;94678.72;5017900;28;20021;-80
2023/01/22 01:43:41;;;;;;;5.47;3.72;;;;;;;6.37;75.83;94691.00;5018004;28;20110;-81
2023/01/22 01:46:15;;;;;;;6.10;4.60;;;;;;;6.39;76.04;94696.88;5033979;28;20487;-79
2023/01/22 01:48:42;;;;;;;6.30;4.20;;;;;;;6.18;76.07;94687.06;5017595;28;20033;-80
2023/01/22 01:51:11;;;;;;;5.70;3.60;;;;;;;6.26;75.80;94705.44;5017816;28;20040;-80
2023/01/22 01:53:37;;;;;;;6.40;3.65;;;;;;;6.20;75.56;94692.97;5051901;28;20033;-80
2023/01/22 01:56:04;;;;;;;6.57;3.15;;;;;;;6.03;75.45;94680.38;5033832;28;20032;-78
2023/01/22 01:58:31;;;;;;;4.90;3.60;;;;;;;6.06;76.51;94687.91;5017493;28;20051;-81
2023/01/22 02:01:06;;;;;;;6.30;3.80;;;;;;;6.08;76.83;94701.53;5017721;28;20028;-82
2023/01/22 02:03:32;;;;;;;7.20;3.63;;;;;;;6.03;76.69;94685.53;5037518;28;20040;-82
2023/01/22 02:05:57;;;;;;;7.82;3.50;;;;;;;5.99;76.52;94687.50;5071883;28;20024;-81
2023/01/22 02:08:23;;;;;;;5.78;3.92;;;;;;;6.02;76.68;94699.38;5053510;28;20040;-81
2023/01/22 02:10:48;;;;;;;7.82;3.83;;;;;;;6.02;76.51;94686.47;5036974;28;20024;-80
2023/01/22 02:13:19;;;;;;;5.30;3.78;;;;;;;5.96;76.48;94692.00;5036875;28;20064;-80
2023/01/22 02:15:45;;;;;;;7.13;4.43;;;;;;;5.97;76.20;94693.69;5020656;28;20028;-79
2023/01/22 02:18:10;;;;;;;7.30;4.25;;;;;;;5.92;76.39;94682.81;5036716;28;20127;-80
2023/01/22 02:20:37;;;;;;;5.93;4.03;;;;;;;5.92;76.71;94693.94;5036768;28;20032;-80
2023/01/22 02:23:03;;;;;;;5.13;4.00;;;;;;;5.88;76.81;94682.19;5071089;28;20510;-78
2023/01/22 02:25:28;;;;;;;8.02;3.70;;;;;;;5.98;76.86;94695.31;5053084;28;20058;-80
2023/01/22 02:27:53;;;;;;;7.45;3.60;;;;;;;6.01;76.21;94701.09;5071082;28;20470;-81
2023/01/22 02:30:19;;;;;;;6.95;3.65;;;;;;;5.99;76.36;94699.53;5053023;28;20033;-80
2023/01/22 02:32:44;;;;;;;6.25;3.85;;;;;;;5.83;76.25;94697.16;5036618;28;20059;-80
2023/01/22 02:35:10;;;;;;;5.35;3.83;;;;;;;5.96;76.07;94717.81;5070908;28;20453;-80
2023/01/22 02:37:35;;;;;;;7.57;4.15;;;;;;;5.81;76.60;94712.69;5036434;28;20402;-80
2023/01/22 02:40:01;;;;;;;6.55;4.63;;;;;;;5.83;76.84;94716.00;5036547;28;20326;-81
2023/01/22 02:42:27;;;;;;;6.95;4.20;;;;;;;5.86;76.49;94719.31;5052908;28;20028;-80
2023/01/22 02:44:52;;;;;;;6.18;3.72;;;;;;;5.66;76.13;94698.25;5019928;28;20025;-80
2023/01/22 02:47:18;;;;;;;5.95;3.50;;;;;;;5.67;76.17;94730.81;5052903;28;20028;-81
2023/01/22 02:49:44;;;;;;;8.65;3.83;;;;;;;5.65;76.49;94717.19;5071322;28;20120;-80
2023/01/22 02:52:09;;;;;;;4.80;3.28;;;;;;;5.57;76.46;94714.28;5052867;28;20025;-81
2023/01/22 02:54:35;;;;;;;6.93;3.17;;;;;;;5.57;76.36;94717.72;5053104;28;20043;-78
2023/01/22 02:57:00;;;;;;;6.72;2.92;;;;;;;5.53;76.71;94730.88;5036184;28;20025;-78
2023/01/22 02:59:26;;;;;;;5.47;3.03;;;;;;;5.53;76.06;94728.31;5019889;28;20031;-78
2023/01/22 03:01:51;;;;;;;6.35;3.13;;;;;;;5.31;75.87;94709.06;5019854;28;20021;-78
2023/01/22 03:04:17;;;;;;;7.70;2.97;;;;;;;5.20;76.73;94723.56;5071288;28;20033;-79
2023/01/22 03:06:44;;;;;;;6.30;3.80;;;;;;;5.09;77.41;94717.31;5052864;28;20035;-79
2023/01/22 03:09:11;;;;;;;6.07;3.50;;;;;;;5.14;77.67;94706.75;5039838;28;20055;-81
2023/01/22 03:11:37;;;;;;;5.72;4.05;;;;;;;5.30;77.94;94714.34;5032915;28;20059;-80
2023/01/22 03:22:15;;;;;;;4.65;3.25;;;;;;;5.60;77.19;94719.28;5021056;28;20422;-81
2023/01/22 03:24:43;;;;;;;6.22;3.50;;;;;;;5.72;77.85;94738.25;5016006;28;20049;-80
2023/01/22 03:27:09;;;;;;;7.57;3.42;;;;;;;5.83;76.97;94734.06;5016101;28;20041;-80
2023/01/22 03:29:37;;;;;;;5.88;3.70;;;;;;;5.97;76.91;94745.25;5032743;28;20036;-79
2023/01/22 03:32:04;;;;;;;6.30;3.33;;;;;;;5.94;76.17;94737.72;5016893;28;20543;-79
2023/01/22 03:34:29;;;;;;;5.30;3.33;;;;;;;5.74;76.50;94710.63;5016443;28;20036;-79
2023/01/22 03:36:55;;;;;;;7.53;3.75;;;;;;;5.84;76.59;94706.53;5015868;28;20441;-79
2023/01/22 03:39:20;;;;;;;5.65;3.25;;;;;;;5.94;76.67;94722.25;5032815;28;20044;-79
2023/01/22 03:41:46;;;;;;;7.30;3.85;;;;;;;5.88;76.78;94712.28;5032279;28;20487;-80
2023/01/22 03:44:13;;;;;;;8.57;4.15;;;;;;;5.98;76.91;94724.50;4999689;28;20502;-81
2023/01/22 03:46:41;;;;;;;9.45;5.15;;;;;;;6.05;77.02;94732.69;5016331;28;20568;-82
2023/01/22 03:49:07;;;;;;;8.05;6.20;;;;;;;5.93;76.78;94710.25;5050530;28;20029;-81
2023/01/22 03:51:33;;;;;;;8.27;6.30;;;;;;;5.82;76.83;94709.22;5032554;28;20033;-81
2023/01/22 03:53:58;;;;;;;9.57;6.68;;;;;;;5.92;76.58;94726.66;5032633;28;20029;-82
2023/01/22 03:56:24;;;;;;;6.25;4.15;;;;;;;5.83;76.76;94720.34;5035620;28;20486;-82
2023/01/22 03:58:49;;;;;;;7.65;4.95;;;;;;;5.77;76.39;94718.19;5019548;28;20041;-82
2023/01/22 04:01:17;;;;;;;9.20;6.00;;;;;;;5.85;76.25;94739.13;5019645;28;20079;-81
2023/01/22 04:03:43;;;;;;;8.02;5.15;;;;;;;5.75;76.51;94731.16;5036301;28;20048;-81
2023/01/22 04:06:09;;;;;;;9.63;4.53;;;;;;;5.86;76.41;94747.69;5036083;28;20532;-79
2023/01/22 04:08:36;;;;;;;6.70;3.90;;;;;;;5.86;76.02;94745.09;5027738;28;20077;-80
2023/01/22 04:11:01;;;;;;;6.55;3.40;;;;;;;5.83;76.06;94746.94;5039128;28;20033;-79
2023/01/22 04:13:28;;;;;;;6.18;3.85;;;;;;;5.72;76.36;94741.66;5039111;28;20039;-80
2023/01/22 04:15:54;;;;;;;6.82;3.97;;;;;;;5.71;76.41;94752.06;5073747;28;20511;-80
2023/01/22 04:18:19;;;;;;;5.57;3.65;;;;;;;5.71;76.32;94752.06;5038707;28;20024;-81
2023/01/22 04:20:45;;;;;;;5.20;3.58;;;;;;;5.67;75.77;94735.97;5054790;28;20024;-81
2023/01/22 04:23:10;;;;;;;5.53;3.90;;;;;;;5.71;76.29;94762.38;5022441;28;20035;-81
2023/01/22 04:25:36;;;;;;;9.02;4.00;;;;;;;5.63;76.07;94756.88;5055575;28;20530;-80
2023/01/22 04:28:01;;;;;;;7.05;3.65;;;;;;;5.65;75.93;94749.88;5055064;28;20516;-80
2023/01/22 04:30:27;;;;;;;7.50;3.90;;;;;;;5.63;76.08;94757.72;5037539;28;20457;-79
2023/01/22 04:32:52;;;;;;;5.57;3.90;;;;;;;5.52;76.02;94748.09;5022278;28;20478;-80
2023/01/22 04:35:18;;;;;;;5.97;3.47;;;;;;;5.52;76.43;94762.75;5022257;28;20050;-80
2023/01/22 04:37:43;;;;;;;5.72;3.83;;;;;;;5.53;76.69;94759.22;5038390;28;20036;-80
2023/01/22 04:40:09;;;;;;;7.32;4.05;;;;;;;5.53;76.52;94754.09;5072119;28;20036;-80
2023/01/22 04:42:35;;;;;;;7.63;4.20;;;;;;;5.50;76.72;94767.97;5021136;28;20074;-80
2023/01/22 04:45:00;;;;;;;6.78;3.92;;;;;;;5.29;77.35;94766.75;5054359;28;20082;-80
2023/01/22 04:47:26;;;;;;;7.97;4.45;;;;;;;5.40;77.15;94777.22;5072910;28;20035;-80
2023/01/22 04:49:52;;;;;;;8.38;4.57;;;;;;;5.43;77.28;94786.50;5034952;28;20206;-79
2023/01/22 04:52:17;;;;;;;7.60;4.63;;;;;;;5.34;77.52;94778.41;5037449;28;20028;-80
2023/01/22 04:54:43;;;;;;;8.13;3.97;;;;;;;5.50;77.24;94792.94;5038471;28;20041;-80
2023/01/22 04:57:09;;;;;;;6.85;4.25;;;;;;;5.47;77.06;94796.53;5051556;28;20048;-81
2023/01/22 04:59:34;;;;;;;7.05;4.35;;;;;;;5.27;77.39;94777.16;5036932;28;20040;-80
2023/01/22 05:02:00;;;;;;;7.03;4.03;;;;;;;5.30;77.59;94794.19;5038384;28;20414;-81
2023/01/22 05:04:25;;;;;;;6.25;4.15;;;;;;;5.40;77.88;94809.88;5021888;28;20032;-80
2023/01/22 05:06:51;;;;;;;5.68;4.03;;;;;;;5.30;77.78;94802.75;5053614;28;20029;-82
2023/01/22 05:09:16;;;;;;;7.05;4.30;;;;;;;5.46;77.13;94814.63;5029705;28;20036;-80
2023/01/22 05:11:42;;;;;;;5.97;3.70;;;;;;;5.40;76.87;94823.59;5034738;28;20501;-80
2023/01/22 05:14:07;;;;;;;5.32;3.97;;;;;;;5.43;76.30;94827.72;5018325;28;20044;-80
2023/01/22 05:16:33;;;;;;;8.15;4.85;;;;;;;5.25;76.78;94814.25;5018157;28;20025;-79
2023/01/22 05:18:58;;;;;;;7.32;4.95;;;;;;;5.28;77.15;94837.22;5018306;28;20156;-80
2023/01/22 05:21:24;;;;;;;6.07;4.03;;;;;;;5.29;77.41;94834.56;5052352;28;20029;-80
2023/01/22 05:23:49;;;;;;;8.02;4.40;;;;;;;5.29;77.35;94841.44;5017844;28;20049;-81
2023/01/22 05:26:14;;;;;;;6.63;4.20;;;;;;;5.11;77.18;94820.25;5052155;28;20025;-80
2023/01/22 05:28:40;;;;;;;7.32;4.10;;;;;;;5.33;77.22;94853.25;5017898;28;20033;-80
2023/01/22 05:31:05;;;;;;;7.22;4.50;;;;;;;5.28;78.00;94847.53;5004521;28;20035;-80
2023/01/22 05:33:31;;;;;;;10.93;4.40;;;;;;;5.38;77.39;94846.88;5033705;28;20098;-80
2023/01/22 05:36:00;;;;;;;6.20;4.22;;;;;;;5.20;77.31;94834.31;5024264;28;20024;-82
2023/01/22 05:38:26;;;;;;;6.60;4.03;;;;;;;5.36;76.85;94866.75;5017586;28;20488;-81
2023/01/22 05:40:53;;;;;;;5.93;3.78;;;;;;;5.11;77.11;94861.44;5034339;28;20104;-80
2023/01/22 05:43:19;;;;;;;5.82;3.78;;;;;;;5.21;77.28;94872.00;5034094;28;20490;-81
2023/01/22 05:45:44;;;;;;;7.10;3.95;;;;;;;5.18;77.57;94877.34;5033816;28;20037;-81
2023/01/22 05:48:10;;;;;;;5.82;4.10;;;;;;;5.19;77.73;94874.69;5050511;28;20112;-81
2023/01/22 05:50:35;;;;;;;7.10;3.80;;;;;;;5.32;77.46;94885.91;5056333;28;20459;-82
2023/01/22 05:53:01;;;;;;;6.85;4.40;;;;;;;5.34;77.20;94884.03;5053872;28;20032;-85
2023/01/22 05:55:27;;;;;;;5.75;4.30;;;;;;;5.28;77.22;94889.56;5071716;28;20031;-79
2023/01/22 05:57:52;;;;;;;8.93;5.13;;;;;;;5.21;77.97;94875.44;5020507;28;20114;-77
2023/01/22 06:00:18;;;;;;;9.90;5.22;;;;;;;5.12;78.20;94868.25;5019432;28;20037;-77
2023/01/22 06:02:43;;;;;;;9.70;4.82;;;;;;;5.36;78.01;94886.53;5036938;28;20467;-79
2023/01/22 06:05:09;;;;;;;6.13;4.32;;;;;;;5.26;77.61;94870.81;5036375;28;20052;-78
2023/01/22 06:07:34;;;;;;;7.63;4.60;;;;;;;5.37;78.00;94888.19;5052345;28;20033;-77
2023/01/22 06:09:59;;;;;;;7.40;4.75;;;;;;;5.28;77.80;94875.88;5036785;28;20071;-78
2023/01/22 06:12:25;;;;;;;7.00;5.25;;;;;;;5.62;76.98;94908.13;5030097;28;20376;-82
2023/01/22 06:14:52;;;;;;;8.40;5.10;;;;;;;5.52;76.89;94897.56;5033084;28;20106;-79
2023/01/22 06:17:18;;;;;;;7.30;5.20;;;;;;;5.60;76.79;94909.97;5053545;28;20025;-81
2023/01/22 06:19:44;;;;;;;12.18;7.65;;;;;;;5.49;77.12;94902.91;5034400;28;20129;-76
2023/01/22 06:22:09;;;;;;;23.83;15.13;;;;;;;5.30;79.74;94923.81;5045686;28;20033;-77
2023/01/22 06:24:35;;;;;;;26.80;16.08;;;;;;;5.36;80.66;94928.59;5031207;28;20052;-77
2023/01/22 06:27:00;;;;;;;20.23;12.57;;;;;;;5.37;80.66;94914.75;5047416;28;20048;-77
2023/01/22 06:29:25;;;;;;;19.13;11.18;;;;;;;5.50;79.56;94924.34;5033021;28;20486;-77
2023/01/22 06:31:51;;;;;;;12.85;8.05;;;;;;;5.37;79.13;94906.22;5049877;28;20036;-78
2023/01/22 06:34:16;;;;;;;10.68;7.10;;;;;;;5.51;78.55;94931.16;5032423;28;20557;-80
2023/01/22 06:36:42;;;;;;;11.48;7.72;;;;;;;5.51;78.17;94926.81;5059877;28;20035;-79
2023/01/22 06:39:07;;;;;;;12.23;7.53;;;;;;;5.56;78.51;94932.53;5053263;28;20032;-78
2023/01/22 06:41:33;;;;;;;11.05;7.68;;;;;;;5.72;78.22;94954.78;5043227;28;20047;-78
2023/01/22 06:43:58;;;;;;;12.95;7.35;;;;;;;5.74;77.75;94953.78;5036069;28;20055;-78
2023/01/22 06:46:24;;;;;;;14.27;8.90;;;;;;;5.82;77.52;94950.69;5029025;28;20029;-78
2023/01/22 06:48:49;;;;;;;14.98;9.30;;;;;;;5.79;77.60;94943.16;5048703;28;20059;-79
2023/01/22 06:51:15;;;;;;;10.07;6.20;;;;;;;5.97;77.01;94954.94;5046181;28;20518;-78
2023/01/22 06:53:41;;;;;;;15.68;9.35;;;;;;;6.03;76.91;94974.38;5018233;28;20039;-79
2023/01/22 06:56:06;;;;;;;11.02;7.45;;;;;;;6.09;76.91;94971.41;5049237;28;20033;-77
2023/01/22 06:58:32;;;;;;;13.60;8.10;;;;;;;6.01;76.88;94953.00;5077424;28;20200;-79
2023/01/22 07:01:01;;;;;;;8.48;5.55;;;;;;;6.23;76.83;94958.47;5027218;28;20052;-79
2023/01/22 07:03:27;;;;;;;11.77;5.70;;;;;;;6.37;76.42;94967.09;5047212;28;20033;-79
2023/01/22 07:05:59;;;;;;;8.77;5.85;;;;;;;6.44;76.76;94961.44;5051433;28;20498;-79
2023/01/22 07:08:25;;;;;;;8.23;5.38;;;;;;;6.44;76.93;94952.88;5064721;28;20036;-77
2023/01/22 07:10:51;;;;;;;6.97;4.85;;;;;;;6.44;76.53;94953.69;5045163;28;20049;-77
2023/01/22 07:13:16;;;;;;;8.02;5.05;;;;;;;6.47;75.94;94970.75;5032309;28;20111;-78
2023/01/22 07:15:42;;;;;;;7.03;5.20;;;;;;;6.66;75.23;94968.63;5046903;28;20032;-78
2023/01/22 07:18:09;;;;;;;10.10;5.93;;;;;;;6.71;75.20;94969.16;5047941;28;20024;-77
2023/01/22 07:20:34;;;;;;;8.93;5.45;;;;;;;6.80;74.99;94975.47;5028956;28;20033;-78
2023/01/22 07:23:00;;;;;;;7.53;5.63;;;;;;;6.87;74.45;94975.88;5047846;28;20035;-79
2023/01/22 07:25:26;;;;;;;8.82;5.30;;;;;;;6.95;74.08;94971.06;5033055;28;20060;-79
2023/01/22 07:27:52;;;;;;;8.20;5.05;;;;;;;7.15;73.41;94985.22;5036720;28;20086;-81
2023/01/22 07:30:17;;;;;;;8.05;5.15;;;;;;;7.23;73.63;94987.31;5062934;28;20085;-88
2023/01/22 07:32:43;;;;;;;7.40;4.97;;;;;;;7.19;73.60;94978.09;5085130;28;20501;-80
2023/01/22 07:35:08;;;;;;;6.75;4.78;;;;;;;7.27;73.94;94965.47;5039562;28;20490;-80
2023/01/22 07:37:35;;;;;;;9.35;4.97;;;;;;;7.36;72.90;94942.44;5021136;28;20477;-77
2023/01/22 07:40:01;;;;;;;7.35;5.15;;;;;;;7.50;72.76;94951.84;5035350;28;20148;-79
2023/01/22 07:42:26;;;;;;;8.82;5.85;;;;;;;7.47;72.17;94941.72;5057103;28;20024;-81
2023/01/22 07:44:52;;;;;;;6.47;4.40;;;;;;;7.67;72.43;94983.47;5082020;28;20473;-78
2023/01/22 07:47:17;;;;;;;9.27;5.55;;;;;;;7.41;72.66;94970.56;5070437;28;20021;-78
2023/01/22 07:49:42;;;;;;;8.15;4.70;;;;;;;7.60;72.60;94990.81;5053089;28;20044;-76
2023/01/22 07:52:08;;;;;;;5.40;4.10;;;;;;;7.57;72.21;94975.50;5070121;28;20033;-75
2023/01/22 07:54:35;;;;;;;10.52;5.75;;;;;;;7.53;72.61;94969.72;5035505;28;20032;-74
2023/01/22 07:57:02;;;;;;;8.80;5.43;;;;;;;7.65;72.33;94996.50;5054791;28;20045;-74
2023/01/22 07:59:28;;;;;;;9.73;6.10;;;;;;;7.70;72.33;95011.72;5053323;28;20036;-81
2023/01/22 08:01:54;;;;;;;17.65;9.55;;;;;;;7.25;74.29;95013.88;5051963;28;20487;-73
2023/01/22 08:04:20;;;;;;;15.65;10.20;;;;;;;6.94;75.57;94992.66;5077819;28;20074;-79
2023/01/22 08:06:45;;;;;;;15.65;10.77;;;;;;;7.06;75.54;95016.84;5020750;28;20037;-74
2023/01/22 08:09:11;;;;;;;21.23;12.75;;;;;;;7.10;75.77;95018.28;5074439;28;20074;-80
2023/01/22 08:11:36;;;;;;;22.25;14.18;;;;;;;7.22;75.63;95021.84;5038133;28;20044;-77
2023/01/22 08:14:02;;;;;;;23.60;14.80;;;;;;;6.98;76.52;95014.75;5019835;28;20422;-81
2023/01/22 08:16:27;;;;;;;25.45;16.95;;;;;;;6.97;76.59;95020.84;5050387;28;20075;-83
2023/01/22 08:18:54;;;;;;;24.55;14.98;;;;;;;6.74;76.70;94993.94;5052746;28;20039;-84
2023/01/22 08:21:19;;;;;;;23.58;16.08;;;;;;;6.86;76.92;95005.25;5053688;28;20033;-83
2023/01/22 08:23:45;;;;;;;23.73;15.88;;;;;;;6.97;76.73;95017.47;5025716;28;20060;-81
2023/01/22 08:26:11;;;;;;;25.95;16.33;;;;;;;6.93;77.06;95027.13;5035126;28;20414;-77
2023/01/22 08:28:37;;;;;;;25.17;17.27;;;;;;;6.99;77.23;95024.16;5033694;28;20032;-80
2023/01/22 08:31:03;;;;;;;36.42;24.08;;;;;;;6.97;76.96;95012.28;5030577;28;20047;-77
2023/01/22 08:33:30;;;;;;;44.58;27.42;;;;;;;7.22;76.45;95042.50;5045126;28;20033;-74
2023/01/22 08:35:56;;;;;;;37.42;23.38;;;;;;;7.27;76.18;95032.66;5019984;28;20036;-78
2023/01/22 08:38:21;;;;;;;46.80;28.58;;;;;;;7.47;75.96;95036.53;5054132;28;20055;-78
2023/01/22 08:40:50;;;;;;;49.67;30.20;;;;;;;7.43;75.58;95030.72;5012842;28;20025;-74
2023/01/22 08:43:16;;;;;;;91.70;42.08;;;;;;;7.53;74.97;95034.34;5033591;28;20078;-78
2023/01/22 08:45:41;;;;;;;99.38;42.05;;;;;;;7.54;74.99;95022.25;5020817;28;20311;-76
2023/01/22 08:48:07;;;;;;;111.47;50.70;;;;;;;7.50;74.99;95034.56;5054196;28;20039;-77
2023/01/22 08:50:32;;;;;;;82.82;43.03;;;;;;;7.36;75.33;95008.81;5034283;28;20037;-77
2023/01/22 08:52:58;;;;;;;58.58;35.55;;;;;;;7.70;75.05;95040.16;5032585;28;20453;-79
2023/01/22 08:55:24;;;;;;;47.05;30.75;;;;;;;7.66;74.91;95028.34;5044466;28;20029;-79
2023/01/22 08:57:54;;;;;;;46.10;29.55;;;;;;;7.76;74.64;95044.91;5052474;28;20490;-83
2023/01/22 09:00:20;;;;;;;42.47;27.20;;;;;;;7.71;74.31;95026.28;5056435;28;20030;-79
2023/01/22 09:02:45;;;;;;;40.10;26.25;;;;;;;7.86;73.92;95038.19;5063889;28;20028;-78
2023/01/22 09:05:11;;;;;;;39.53;26.40;;;;;;;7.92;73.69;95037.75;5019537;28;20029;-78
2023/01/22 09:07:36;;;;;;;38.97;24.90;;;;;;;7.99;73.56;95044.13;5037809;28;20036;-79
2023/01/22 09:10:03;;;;;;;42.67;27.80;;;;;;;8.01;73.45;95025.94;5070776;28;20032;-78
2023/01/22 09:12:28;;;;;;;42.47;26.35;;;;;;;7.98;73.40;95026.97;5036682;28;20422;-75
2023/01/22 09:14:54;;;;;;;38.20;26.15;;;;;;;7.92;73.43;95024.00;5036453;28;20021;-77
2023/01/22 09:17:19;;;;;;;42.03;27.52;;;;;;;8.10;73.50;95046.00;5052261;28;20513;-78
2023/01/22 09:19:45;;;;;;;43.45;28.85;;;;;;;8.03;73.63;95035.25;5054548;28;20025;-79
2023/01/22 09:22:10;;;;;;;45.50;30.27;;;;;;;8.15;73.54;95037.91;5037618;28;20028;-78
2023/01/22 09:24:35;;;;;;;45.15;29.60;;;;;;;8.27;73.92;95045.66;5031255;28;20049;-79
2023/01/22 09:27:01;;;;;;;41.65;25.67;;;;;;;8.31;73.51;95028.16;5027199;28;20497;-79
2023/01/22 09:29:26;;;;;;;34.13;22.30;;;;;;;8.35;73.92;95036.50;5015787;28;20044;-78
2023/01/22 09:31:52;;;;;;;24.30;17.30;;;;;;;8.36;73.13;95026.06;5016184;28;20037;-79
2023/01/22 09:34:17;;;;;;;20.13;14.35;;;;;;;8.49;72.94;95028.63;5032325;28;20032;-78
2023/01/22 09:36:44;;;;;;;21.20;13.55;;;;;;;8.51;72.62;95031.94;4999363;28;20037;-78
2023/01/22 09:39:10;;;;;;;11.80;8.63;;;;;;;8.38;71.90;94995.69;5001494;28;20518;-78
2023/01/22 09:41:40;;;;;;;9.80;6.78;;;;;;;8.59;71.03;95019.28;5033953;28;20033;-78
2023/01/22 09:44:08;;;;;;;8.35;5.65;;;;;;;8.74;70.07;95019.94;5034408;28;20036;-78
2023/01/22 09:46:44;;;;;;;8.60;5.25;;;;;;;8.84;70.00;95025.28;5034140;28;20025;-78
2023/01/22 09:49:20;;;;;;;6.68;4.70;;;;;;;8.73;70.27;95016.53;5033910;28;20025;-78
2023/01/22 09:51:55;;;;;;;7.70;4.47;;;;;;;8.88;69.29;95011.97;5018387;28;20025;-78
2023/01/22 09:54:20;;;;;;;6.70;4.32;;;;;;;8.92;68.98;95016.00;5018005;28;20033;-78
2023/01/22 09:56:49;;;;;;;5.80;4.05;;;;;;;8.76;69.26;95012.88;5034245;28;20044;-78
2023/01/22 09:59:35;;;;;;;5.07;3.90;;;;;;;9.12;67.98;95026.69;5034063;28;20044;-78
2023/01/22 10:02:32;;;;;;;6.40;3.38;;;;;;;9.18;67.94;95027.03;5050029;28;20029;-79
2023/01/22 10:05:18;;;;;;;7.07;4.28;;;;;;;9.08;68.28;95007.09;5002925;28;20131;-79
2023/01/22 10:07:51;;;;;;;6.15;3.88;;;;;;;9.17;68.63;95012.44;5017989;28;20099;-79
2023/01/22 10:10:25;;;;;;;5.32;3.50;;;;;;;9.26;68.76;95021.31;5017273;28;20055;-79
2023/01/22 10:13:05;;;;;;;4.80;3.17;;;;;;;9.32;67.62;95017.44;5004853;28;20033;-78
2023/01/22 10:15:30;;;;;;;5.65;3.63;;;;;;;9.43;67.54;95011.44;5032788;28;20572;-79
2023/01/22 10:17:56;;;;;;;6.20;3.80;;;;;;;9.49;67.39;95029.94;5030111;28;20106;-78
2023/01/22 10:20:21;;;;;;;7.70;4.20;;;;;;;9.46;67.43;95017.22;5016137;28;20414;-81
2023/01/22 10:22:47;;;;;;;6.15;3.53;;;;;;;9.32;67.64;95004.47;4996478;28;20040;-79
2023/01/22 10:25:14;;;;;;;6.00;3.60;;;;;;;9.44;67.53;95026.03;5042193;28;20059;-78
2023/01/22 10:27:39;;;;;;;6.20;3.83;;;;;;;9.49;67.24;95023.94;5075396;28;20017;-80
2023/01/22 10:30:19;;;;;;;5.28;3.40;;;;;;;9.48;66.85;95012.75;5025321;28;20101;-79
2023/01/22 10:32:59;;;;;;;5.55;3.53;;;;;;;9.48;67.40;95017.13;5052920;28;20181;-80
2023/01/22 10:35:25;;;;;;;6.38;3.70;;;;;;;9.44;67.03;95008.72;5021533;28;20113;-80
2023/01/22 10:37:52;;;;;;;6.55;4.00;;;;;;;9.44;67.04;95007.91;5052824;28;20024;-80
2023/01/22 10:40:32;;;;;;;11.95;7.45;;;;;;;9.45;67.79;94992.22;5032677;28;20033;-80
2023/01/22 10:43:15;;;;;;;17.58;11.55;;;;;;;9.56;68.95;95025.16;5033996;28;20056;-80
2023/01/22 10:45:58;;;;;;;16.58;11.13;;;;;;;9.58;68.93;95011.13;5033144;28;20486;-80
2023/01/22 10:48:23;;;;;;;15.50;9.95;;;;;;;9.39;69.77;95011.69;5017309;28;20510;-79
2023/01/22 10:51:09;;;;;;;13.55;9.10;;;;;;;9.48;70.20;95011.94;5016606;28;20025;-79
2023/01/22 10:53:36;;;;;;;12.70;10.13;;;;;;;9.58;70.14;95016.31;5032920;28;20064;-80
2023/01/22 10:56:03;;;;;;;16.13;8.90;;;;;;;9.68;69.31;95016.41;5033097;28;20108;-79
2023/01/22 10:58:33;;;;;;;13.98;9.48;;;;;;;9.73;69.00;95011.72;5033182;28;20024;-80
2023/01/22 11:01:01;;;;;;;24.53;15.60;;;;;;;9.75;69.03;95020.22;5033231;28;20078;-79
2023/01/22 11:03:34;;;;;;;24.05;15.02;;;;;;;9.78;68.55;95007.00;5016564;28;20108;-80
2023/01/22 11:06:11;;;;;;;23.02;14.52;;;;;;;9.78;68.77;95009.59;5015913;28;20083;-80
2023/01/22 11:08:58;;;;;;;27.13;17.83;;;;;;;9.94;68.59;95009.22;5016796;28;20037;-80
2023/01/22 11:11:30;;;;;;;25.85;18.02;;;;;;;10.11;68.36;95020.91;5029992;28;20096;-80
2023/01/22 11:14:25;;;;;;;17.85;11.75;;;;;;;10.32;66.21;95036.63;5017162;28;20094;-79
2023/01/22 11:16:51;;;;;;;9.95;7.03;;;;;;;10.32;65.89;95030.59;5017051;28;20510;-80
2023/01/22 11:19:18;;;;;;;9.10;5.30;;;;;;;10.23;64.60;95022.56;5032836;28;20033;-79
2023/01/22 11:21:53;;;;;;;8.05;3.92;;;;;;;10.26;64.55;95026.69;5016755;28;20029;-79
2023/01/22 11:24:37;;;;;;;10.90;8.05;;;;;;;10.21;66.35;95023.63;5016420;28;20052;-80
2023/01/22 11:27:23;;;;;;;11.90;8.13;;;;;;;10.43;66.19;95028.00;5032620;28;20094;-80
2023/01/22 11:29:57;;;;;;;11.73;7.53;;;;;;;10.32;66.40;95026.22;5032811;28;20048;-79
2023/01/22 11:32:59;;;;;;;11.25;7.03;;;;;;;10.33;65.58;95027.88;5066853;28;20107;-80
2023/01/22 11:35:43;;;;;;;5.35;3.42;;;;;;;10.24;64.07;95000.81;5048536;28;20036;-80
2023/01/22 11:38:16;;;;;;;5.80;3.42;;;;;;;10.24;63.40;95028.56;5034714;28;20394;-80
2023/01/22 11:41:10;;;;;;;4.68;2.78;;;;;;;10.27;62.45;95030.94;5049663;28;20032;-76
2023/01/22 11:43:42;;;;;;;7.32;3.03;;;;;;;10.29;63.24;95035.09;5069856;28;20115;-77
2023/01/22 11:46:36;;;;;;;5.68;3.13;;;;;;;10.33;63.07;95009.69;5036084;28;20119;-73